createdAt,value
2018-09-24T00:00:25.974Z,0
2018-09-24T00:01:35.413Z,0
2018-09-24T00:02:45.351Z,0
2018-09-24T00:03:55.293Z,0
2018-09-24T00:05:05.248Z,0
2018-09-24T00:06:14.941Z,0
2018-09-24T00:07:24.883Z,0
2018-09-24T00:08:34.826Z,0
2018-09-24T00:09:44.780Z,0
2018-09-24T00:10:54.468Z,0
2018-09-24T00:12:04.426Z,0
2018-09-24T00:13:14.374Z,0
2018-09-24T00:14:24.330Z,0
2018-09-24T00:15:34.266Z,0
2018-09-24T00:16:44.216Z,0
2018-09-24T00:17:54.163Z,0
2018-09-24T00:19:03.613Z,0
2018-09-24T00:20:13.548Z,0
2018-09-24T00:21:23.510Z,0
2018-09-24T00:22:33.249Z,0
2018-09-24T00:23:42.944Z,0
2018-09-24T00:24:52.890Z,0
2018-09-24T00:26:02.836Z,0
2018-09-24T00:27:12.782Z,0
2018-09-24T00:28:22.728Z,0
2018-09-24T00:29:32.685Z,0
2018-09-24T00:30:42.633Z,0
2018-09-24T00:31:52.599Z,0
2018-09-24T00:33:02.282Z,0
2018-09-24T00:34:12.279Z,0
2018-09-24T00:35:22.229Z,0
2018-09-24T00:36:31.896Z,0
2018-09-24T00:37:41.859Z,0
2018-09-24T00:38:51.809Z,0
2018-09-24T00:40:01.773Z,0
2018-09-24T00:41:11.728Z,0
2018-09-24T00:42:21.524Z,0
2018-09-24T00:43:31.557Z,0
2018-09-24T00:44:41.551Z,0
2018-09-24T00:45:51.238Z,0
2018-09-24T00:47:01.173Z,0
2018-09-24T00:48:11.107Z,0
2018-09-24T00:49:20.809Z,0
2018-09-24T00:50:30.749Z,0
2018-09-24T00:51:40.446Z,0
2018-09-24T00:52:50.390Z,0
2018-09-24T00:54:00.330Z,0
2018-09-24T00:55:09.756Z,0
2018-09-24T00:56:19.706Z,0
2018-09-24T00:57:29.660Z,0
2018-09-24T00:58:39.603Z,0
2018-09-24T00:59:49.043Z,0
2018-09-24T01:00:59.288Z,0
2018-09-24T01:02:08.990Z,0
2018-09-24T01:03:18.932Z,0
2018-09-24T01:04:28.885Z,0
2018-09-24T01:05:38.574Z,0
2018-09-24T01:06:48.507Z,0
2018-09-24T01:07:58.190Z,0
2018-09-24T01:09:08.134Z,0
2018-09-24T01:10:18.097Z,0
2018-09-24T01:11:28.040Z,0
2018-09-24T01:12:37.973Z,0
2018-09-24T01:13:48.127Z,0
2018-09-24T01:14:57.815Z,0
2018-09-24T01:16:07.756Z,0
2018-09-24T01:17:17.701Z,0
2018-09-24T01:18:27.653Z,0
2018-09-24T01:19:37.596Z,0
2018-09-24T01:20:47.525Z,0
2018-09-24T01:21:57.466Z,0
2018-09-24T01:23:07.421Z,0
2018-09-24T01:24:16.843Z,0
2018-09-24T01:25:26.527Z,0
2018-09-24T01:26:36.455Z,0
2018-09-24T01:27:46.395Z,0
2018-09-24T01:28:56.353Z,0
2018-09-24T01:30:06.036Z,0
2018-09-24T01:31:15.982Z,0
2018-09-24T01:32:25.682Z,0
2018-09-24T01:33:35.678Z,0
2018-09-24T01:34:45.632Z,0
2018-09-24T01:35:55.323Z,0
2018-09-24T01:37:05.417Z,0
2018-09-24T01:38:15.360Z,0
2018-09-24T01:39:25.305Z,0
2018-09-24T01:40:35.255Z,0
2018-09-24T01:41:44.946Z,0
2018-09-24T01:42:54.628Z,0
2018-09-24T01:44:04.570Z,0
2018-09-24T01:45:14.255Z,0
2018-09-24T01:46:24.205Z,0
2018-09-24T01:47:34.169Z,0
2018-09-24T01:48:43.860Z,0
2018-09-24T01:49:53.789Z,0
2018-09-24T01:51:03.734Z,0
2018-09-24T01:52:13.420Z,0
2018-09-24T01:53:23.108Z,0
2018-09-24T01:54:33.060Z,0
2018-09-24T01:55:42.995Z,0
2018-09-24T01:56:52.708Z,0
2018-09-24T01:58:02.674Z,0
2018-09-24T01:59:12.636Z,0
2018-09-24T02:00:22.576Z,0
2018-09-24T02:01:32.522Z,0
2018-09-24T02:02:42.468Z,0
2018-09-24T02:03:52.393Z,0
2018-09-24T02:05:02.084Z,0
2018-09-24T02:06:12.025Z,0
2018-09-24T02:07:21.963Z,0
2018-09-24T02:08:31.727Z,0
2018-09-24T02:09:41.675Z,0
2018-09-24T02:10:51.613Z,0
2018-09-24T02:12:01.564Z,0
2018-09-24T02:13:11.508Z,0
2018-09-24T02:14:21.454Z,0
2018-09-24T02:15:31.128Z,0
2018-09-24T02:16:40.803Z,0
2018-09-24T02:17:50.750Z,0
2018-09-24T02:19:00.699Z,0
2018-09-24T02:20:10.362Z,0
2018-09-24T02:21:20.295Z,0
2018-09-24T02:22:30.253Z,0
2018-09-24T02:23:40.201Z,0
2018-09-24T02:24:50.150Z,0
2018-09-24T02:25:59.842Z,0
2018-09-24T02:27:09.791Z,0
2018-09-24T02:28:19.479Z,0
2018-09-24T02:29:29.160Z,0
2018-09-24T02:30:38.872Z,0
2018-09-24T02:31:48.580Z,0
2018-09-24T02:32:58.281Z,0
2018-09-24T02:34:08.233Z,0
2018-09-24T02:35:18.198Z,0
2018-09-24T02:36:28.135Z,0
2018-09-24T02:37:37.312Z,0
2018-09-24T02:38:47.262Z,0
2018-09-24T02:39:57.213Z,0
2018-09-24T02:41:07.152Z,0
2018-09-24T02:42:17.098Z,0
2018-09-24T02:43:27.048Z,0
2018-09-24T02:44:36.733Z,0
2018-09-24T02:45:46.420Z,0
2018-09-24T02:46:56.373Z,0
2018-09-24T02:48:06.329Z,0
2018-09-24T02:49:15.760Z,0
2018-09-24T02:50:25.444Z,0
2018-09-24T02:51:35.146Z,0
2018-09-24T02:52:44.571Z,0
2018-09-24T02:53:53.999Z,0
2018-09-24T02:55:03.945Z,0
2018-09-24T02:56:13.892Z,0
2018-09-24T02:57:23.582Z,0
2018-09-24T02:58:33.013Z,0
2018-09-24T02:59:42.971Z,0
2018-09-24T03:00:52.932Z,0
2018-09-24T03:02:02.883Z,0
2018-09-24T03:03:12.837Z,0
2018-09-24T03:04:22.784Z,0
2018-09-24T03:05:32.731Z,0
2018-09-24T03:06:42.670Z,0
2018-09-24T03:07:52.615Z,0
2018-09-24T03:09:02.562Z,0
2018-09-24T03:10:12.505Z,0
2018-09-24T03:11:22.203Z,0
2018-09-24T03:12:32.149Z,0
2018-09-24T03:13:41.832Z,0
2018-09-24T03:14:51.777Z,0
2018-09-24T03:16:01.725Z,0
2018-09-24T03:17:11.678Z,0
2018-09-24T03:18:21.630Z,0
2018-09-24T03:19:31.321Z,0
2018-09-24T03:20:41.266Z,0
2018-09-24T03:21:51.221Z,0
2018-09-24T03:23:00.916Z,0
2018-09-24T03:24:10.888Z,0
2018-09-24T03:25:20.581Z,0
2018-09-24T03:26:31.125Z,0
2018-09-24T03:27:41.069Z,0
2018-09-24T03:28:51.059Z,0
2018-09-24T03:30:01.027Z,0
2018-09-24T03:31:10.465Z,0
2018-09-24T03:32:20.406Z,0
2018-09-24T03:33:30.354Z,0
2018-09-24T03:34:40.312Z,0
2018-09-24T03:35:50.263Z,0
2018-09-24T03:36:59.968Z,0
2018-09-24T03:38:09.908Z,0
2018-09-24T03:39:19.872Z,0
2018-09-24T03:40:29.835Z,0
2018-09-24T03:41:39.537Z,0
2018-09-24T03:42:49.276Z,0
2018-09-24T03:43:59.216Z,0
2018-09-24T03:45:09.189Z,0
2018-09-24T03:46:19.156Z,0
2018-09-24T03:47:29.098Z,0
2018-09-24T03:48:39.063Z,0
2018-09-24T03:49:48.768Z,0
2018-09-24T03:50:58.718Z,0
2018-09-24T03:52:08.660Z,0
2018-09-24T03:53:18.603Z,0
2018-09-24T03:54:28.279Z,0
2018-09-24T03:55:37.958Z,0
2018-09-24T03:56:47.903Z,0
2018-09-24T03:57:57.863Z,0
2018-09-24T03:59:08.227Z,0
2018-09-24T04:00:18.261Z,0
2018-09-24T04:01:27.937Z,0
2018-09-24T04:02:37.873Z,0
2018-09-24T04:03:47.548Z,0
2018-09-24T04:04:57.239Z,0
2018-09-24T04:06:07.196Z,0
2018-09-24T04:07:17.156Z,0
2018-09-24T04:08:26.856Z,0
2018-09-24T04:09:37.017Z,0
2018-09-24T04:10:47.043Z,0
2018-09-24T04:11:57.097Z,0
2018-09-24T04:13:07.036Z,0
2018-09-24T04:14:16.738Z,0
2018-09-24T04:15:26.685Z,0
2018-09-24T04:16:36.372Z,0
2018-09-24T04:17:46.309Z,0
2018-09-24T04:18:56.276Z,0
2018-09-24T04:20:06.246Z,0
2018-09-24T04:21:15.952Z,0
2018-09-24T04:22:25.912Z,4
2018-09-24T04:23:35.599Z,4
2018-09-24T04:24:45.560Z,0
2018-09-24T04:25:55.519Z,4
2018-09-24T04:27:05.465Z,8
2018-09-24T04:28:15.412Z,8
2018-09-24T04:29:25.129Z,8
2018-09-24T04:30:35.092Z,12
2018-09-24T04:31:45.027Z,16
2018-09-24T04:32:54.996Z,16
2018-09-24T04:34:04.952Z,20
2018-09-24T04:35:14.639Z,28
2018-09-24T04:36:24.601Z,32
2018-09-24T04:37:34.566Z,44
2018-09-24T04:38:44.537Z,48
2018-09-24T04:39:54.505Z,64
2018-09-24T04:41:04.472Z,72
2018-09-24T04:42:14.480Z,88
2018-09-24T04:43:24.439Z,108
2018-09-24T04:44:34.391Z,128
2018-09-24T04:45:44.362Z,152
2018-09-24T04:46:54.313Z,176
2018-09-24T04:48:04.274Z,204
2018-09-24T04:49:14.587Z,244
2018-09-24T04:50:24.686Z,280
2018-09-24T04:51:34.643Z,324
2018-09-24T04:52:44.600Z,376
2018-09-24T04:53:54.574Z,424
2018-09-24T04:55:04.543Z,484
2018-09-24T04:56:14.507Z,544
2018-09-24T04:57:24.494Z,612
2018-09-24T04:58:34.101Z,680
2018-09-24T04:59:44.232Z,748
2018-09-24T05:00:53.924Z,828
2018-09-24T05:02:03.891Z,908
2018-09-24T05:03:13.853Z,988
2018-09-24T05:04:23.550Z,1076
2018-09-24T05:05:33.507Z,1168
2018-09-24T05:06:43.474Z,1256
2018-09-24T05:07:53.413Z,1352
2018-09-24T05:09:03.093Z,1452
2018-09-24T05:10:13.327Z,1552
2018-09-24T05:11:23.379Z,1652
2018-09-24T05:12:33.339Z,1748
2018-09-24T05:13:43.280Z,1852
2018-09-24T05:14:53.229Z,1964
2018-09-24T05:16:03.109Z,2072
2018-09-24T05:17:13.338Z,2188
2018-09-24T05:18:23.292Z,2276
2018-09-24T05:19:33.225Z,2356
2018-09-24T05:20:42.916Z,2468
2018-09-24T05:21:52.868Z,2576
2018-09-24T05:23:02.836Z,2688
2018-09-24T05:24:12.781Z,2808
2018-09-24T05:25:22.736Z,2860
2018-09-24T05:26:32.688Z,2948
2018-09-24T05:27:42.389Z,3052
2018-09-24T05:28:52.339Z,3156
2018-09-24T05:30:02.039Z,3212
2018-09-24T05:31:11.986Z,3260
2018-09-24T05:32:22.063Z,3268
2018-09-24T05:33:32.149Z,3376
2018-09-24T05:34:42.091Z,3504
2018-09-24T05:35:51.525Z,3620
2018-09-24T05:37:01.485Z,3724
2018-09-24T05:38:11.481Z,3812
2018-09-24T05:39:21.461Z,3952
2018-09-24T05:40:31.437Z,4436
2018-09-24T05:41:41.407Z,4264
2018-09-24T05:42:51.417Z,4076
2018-09-24T05:44:00.883Z,4140
2018-09-24T05:45:10.572Z,4260
2018-09-24T05:46:20.544Z,4264
2018-09-24T05:47:30.513Z,4484
2018-09-24T05:48:40.540Z,5476
2018-09-24T05:49:50.485Z,4724
2018-09-24T05:51:00.459Z,4548
2018-09-24T05:52:10.142Z,4596
2018-09-24T05:53:19.841Z,4808
2018-09-24T05:54:29.874Z,4824
2018-09-24T05:55:39.561Z,4960
2018-09-24T05:56:49.517Z,5028
2018-09-24T05:57:59.472Z,5024
2018-09-24T05:59:09.452Z,5156
2018-09-24T06:00:19.153Z,5684
2018-09-24T06:01:28.859Z,5504
2018-09-24T06:02:38.549Z,5300
2018-09-24T06:03:48.248Z,5480
2018-09-24T06:04:58.236Z,5604
2018-09-24T06:06:07.940Z,5660
2018-09-24T06:07:17.906Z,5452
2018-09-24T06:08:27.854Z,5648
2018-09-24T06:09:37.811Z,5788
2018-09-24T06:10:47.504Z,5928
2018-09-24T06:11:57.463Z,5900
2018-09-24T06:13:07.417Z,5900
2018-09-24T06:14:17.365Z,5960
2018-09-24T06:15:27.299Z,6064
2018-09-24T06:16:36.741Z,6060
2018-09-24T06:17:46.693Z,6108
2018-09-24T06:18:56.246Z,6268
2018-09-24T06:20:06.342Z,6388
2018-09-24T06:21:16.330Z,6384
2018-09-24T06:22:26.324Z,6476
2018-09-24T06:23:36.287Z,6724
2018-09-24T06:24:46.261Z,6716
2018-09-24T06:25:56.227Z,6920
2018-09-24T06:27:06.191Z,7068
2018-09-24T06:28:16.156Z,6904
2018-09-24T06:29:26.261Z,7484
2018-09-24T06:30:36.220Z,8552
2018-09-24T06:31:46.182Z,7708
2018-09-24T06:32:56.127Z,6720
2018-09-24T06:34:06.103Z,7340
2018-09-24T06:35:16.123Z,7468
2018-09-24T06:36:26.084Z,7152
2018-09-24T06:37:35.777Z,7064
2018-09-24T06:38:45.731Z,7140
2018-09-24T06:39:55.695Z,7220
2018-09-24T06:41:05.863Z,7356
2018-09-24T06:42:15.954Z,7304
2018-09-24T06:43:25.662Z,7220
2018-09-24T06:44:35.687Z,7320
2018-09-24T06:45:45.386Z,7788
2018-09-24T06:46:55.347Z,8280
2018-09-24T06:48:05.027Z,7912
2018-09-24T06:49:14.967Z,7836
2018-09-24T06:50:24.983Z,7732
2018-09-24T06:51:34.687Z,7764
2018-09-24T06:52:44.658Z,7832
2018-09-24T06:53:54.633Z,8300
2018-09-24T06:55:04.350Z,8080
2018-09-24T06:56:13.773Z,7892
2018-09-24T06:57:23.493Z,8136
2018-09-24T06:58:33.523Z,8304
2018-09-24T06:59:43.875Z,8380
2018-09-24T07:00:53.887Z,8724
2018-09-24T07:02:03.859Z,10580
2018-09-24T07:03:13.553Z,9692
2018-09-24T07:04:23.518Z,7988
2018-09-24T07:05:33.643Z,8352
2018-09-24T07:06:43.644Z,8680
2018-09-24T07:07:53.612Z,8820
2018-09-24T07:09:03.554Z,9844
2018-09-24T07:10:13.509Z,12456
2018-09-24T07:11:23.839Z,13524
2018-09-24T07:12:33.200Z,10968
2018-09-24T07:13:43.151Z,11436
2018-09-24T07:14:52.895Z,9632
2018-09-24T07:16:02.618Z,8900
2018-09-24T07:17:12.353Z,10696
2018-09-24T07:18:22.338Z,13044
2018-09-24T07:19:32.032Z,10832
2018-09-24T07:20:41.735Z,10280
2018-09-24T07:21:51.689Z,10516
2018-09-24T07:23:01.687Z,13212
2018-09-24T07:24:11.139Z,10960
2018-09-24T07:25:21.101Z,12116
2018-09-24T07:26:30.799Z,10272
2018-09-24T07:27:40.924Z,10192
2018-09-24T07:28:51.087Z,10568
2018-09-24T07:30:01.049Z,11200
2018-09-24T07:31:11.060Z,10184
2018-09-24T07:32:21.035Z,10576
2018-09-24T07:33:31.195Z,11820
2018-09-24T07:34:40.882Z,15932
2018-09-24T07:35:50.839Z,13416
2018-09-24T07:37:00.826Z,16528
2018-09-24T07:38:10.786Z,13292
2018-09-24T07:39:20.770Z,14480
2018-09-24T07:40:30.749Z,13248
2018-09-24T07:41:40.713Z,13060
2018-09-24T07:42:50.430Z,15608
2018-09-24T07:44:00.460Z,15432
2018-09-24T07:45:10.459Z,12588
2018-09-24T07:46:20.417Z,13356
2018-09-24T07:47:30.457Z,12948
2018-09-24T07:48:40.457Z,11292
2018-09-24T07:49:50.156Z,12280
2018-09-24T07:50:59.886Z,8900
2018-09-24T07:52:09.316Z,9400
2018-09-24T07:53:19.004Z,11984
2018-09-24T07:54:28.975Z,15808
2018-09-24T07:55:39.440Z,16952
2018-09-24T07:56:49.507Z,18976
2018-09-24T07:57:59.258Z,14016
2018-09-24T07:59:08.967Z,13948
2018-09-24T08:00:18.927Z,13812
2018-09-24T08:01:28.891Z,19232
2018-09-24T08:02:38.597Z,25696
2018-09-24T08:03:48.574Z,32960
2018-09-24T08:04:58.538Z,21600
2018-09-24T08:06:08.238Z,17664
2018-09-24T08:07:18.369Z,20288
2018-09-24T08:08:28.370Z,13700
2018-09-24T08:09:38.323Z,17524
2018-09-24T08:10:48.281Z,18080
2018-09-24T08:11:58.241Z,27232
2018-09-24T08:13:08.605Z,23840
2018-09-24T08:14:18.596Z,37888
2018-09-24T08:15:28.554Z,19104
2018-09-24T08:16:38.495Z,18976
2018-09-24T08:17:48.446Z,17536
2018-09-24T08:18:58.399Z,12512
2018-09-24T08:20:08.148Z,14900
2018-09-24T08:21:18.436Z,35552
2018-09-24T08:22:28.403Z,31872
2018-09-24T08:23:38.350Z,40224
2018-09-24T08:24:48.321Z,36768
2018-09-24T08:25:58.286Z,21248
2018-09-24T08:27:08.261Z,36096
2018-09-24T08:28:17.974Z,15924
2018-09-24T08:29:27.669Z,42592
2018-09-24T08:30:37.628Z,32736
2018-09-24T08:31:47.584Z,19680
2018-09-24T08:32:57.283Z,15492
2018-09-24T08:34:07.006Z,13780
2018-09-24T08:35:16.970Z,26400
2018-09-24T08:36:27.492Z,46112
2018-09-24T08:37:37.463Z,52320
2018-09-24T08:38:47.430Z,44032
2018-09-24T08:39:57.395Z,15188
2018-09-24T08:41:07.410Z,12976
2018-09-24T08:42:17.117Z,14316
2018-09-24T08:43:26.825Z,19040
2018-09-24T08:44:36.799Z,47200
2018-09-24T08:45:46.783Z,24480
2018-09-24T08:46:56.738Z,43168
2018-09-24T08:48:06.437Z,18368
2018-09-24T08:49:16.396Z,17412
2018-09-24T08:50:26.097Z,17332
2018-09-24T08:51:35.538Z,21120
2018-09-24T08:52:45.503Z,23744
2018-09-24T08:53:55.487Z,58816
2018-09-24T08:55:05.216Z,24864
2018-09-24T08:56:15.186Z,20896
2018-09-24T08:57:25.551Z,64448
2018-09-24T08:58:35.533Z,69184
2018-09-24T08:59:45.510Z,66560
2018-09-24T09:00:55.494Z,22848
2018-09-24T09:02:05.446Z,26400
2018-09-24T09:03:15.168Z,26304
2018-09-24T09:04:25.123Z,20896
2018-09-24T09:05:35.346Z,23200
2018-09-24T09:06:45.311Z,23840
2018-09-24T09:07:55.286Z,23552
2018-09-24T09:09:04.752Z,20096
2018-09-24T09:10:14.775Z,22848
2018-09-24T09:11:24.761Z,41824
2018-09-24T09:12:34.471Z,19808
2018-09-24T09:13:44.472Z,23904
2018-09-24T09:14:53.917Z,27616
2018-09-24T09:16:04.102Z,25088
2018-09-24T09:17:14.055Z,27360
2018-09-24T09:18:24.011Z,52288
2018-09-24T09:19:33.972Z,27264
2018-09-24T09:20:43.922Z,25536
2018-09-24T09:21:53.896Z,27648
2018-09-24T09:23:04.068Z,30944
2018-09-24T09:24:14.296Z,29024
2018-09-24T09:25:24.296Z,29824
2018-09-24T09:26:34.262Z,33088
2018-09-24T09:27:44.217Z,26560
2018-09-24T09:28:54.172Z,26752
2018-09-24T09:30:04.135Z,84768
2018-09-24T09:31:14.143Z,37376
2018-09-24T09:32:24.121Z,43648
2018-09-24T09:33:34.061Z,31040
2018-09-24T09:34:43.784Z,93216
2018-09-24T09:35:53.230Z,30880
2018-09-24T09:37:03.034Z,24736
2018-09-24T09:38:13.028Z,21696
2018-09-24T09:39:22.485Z,27008
2018-09-24T09:40:31.951Z,34240
2018-09-24T09:41:41.939Z,22016
2018-09-24T09:42:51.898Z,24000
2018-09-24T09:44:01.882Z,28192
2018-09-24T09:45:11.843Z,44416
2018-09-24T09:46:21.820Z,37760
2018-09-24T09:47:31.796Z,31296
2018-09-24T09:48:41.508Z,25440
2018-09-24T09:49:51.218Z,20800
2018-09-24T09:51:01.217Z,26112
2018-09-24T09:52:10.672Z,46976
2018-09-24T09:53:20.377Z,28640
2018-09-24T09:54:30.109Z,25920
2018-09-24T09:55:40.079Z,24960
2018-09-24T09:56:50.034Z,33504
2018-09-24T09:57:59.990Z,104256
2018-09-24T09:59:10.189Z,24512
2018-09-24T10:00:20.234Z,29632
2018-09-24T10:01:29.952Z,42880
2018-09-24T10:02:39.934Z,51712
2018-09-24T10:03:49.912Z,25120
2018-09-24T10:05:00.029Z,24032
2018-09-24T10:06:10.031Z,22848
2018-09-24T10:07:19.983Z,19776
2018-09-24T10:08:29.948Z,23584
2018-09-24T10:09:39.883Z,25088
2018-09-24T10:10:49.863Z,18112
2018-09-24T10:11:59.846Z,18784
2018-09-24T10:13:09.821Z,25376
2018-09-24T10:14:19.803Z,50784
2018-09-24T10:15:29.264Z,73888
2018-09-24T10:16:39.231Z,115072
2018-09-24T10:17:48.929Z,114080
2018-09-24T10:18:58.368Z,26144
2018-09-24T10:20:08.335Z,31136
2018-09-24T10:21:18.299Z,105024
2018-09-24T10:22:28.042Z,34400
2018-09-24T10:23:37.514Z,37728
2018-09-24T10:24:47.222Z,27712
2018-09-24T10:25:56.953Z,25408
2018-09-24T10:27:06.911Z,40416
2018-09-24T10:28:16.868Z,40672
2018-09-24T10:29:26.827Z,27040
2018-09-24T10:30:36.514Z,30720
2018-09-24T10:31:46.206Z,81952
2018-09-24T10:32:56.177Z,33696
2018-09-24T10:34:06.138Z,23392
2018-09-24T10:35:15.859Z,17568
2018-09-24T10:36:25.570Z,17364
2018-09-24T10:37:35.523Z,21344
2018-09-24T10:38:45.549Z,124576
2018-09-24T10:39:55.236Z,129120
2018-09-24T10:41:04.418Z,37184
2018-09-24T10:42:14.131Z,32096
2018-09-24T10:43:24.133Z,45248
2018-09-24T10:44:34.106Z,23872
2018-09-24T10:45:43.811Z,20544
2018-09-24T10:46:53.976Z,19616
2018-09-24T10:48:03.697Z,21152
2018-09-24T10:49:13.666Z,29952
2018-09-24T10:50:23.881Z,119488
2018-09-24T10:51:33.898Z,57312
2018-09-24T10:52:43.856Z,22336
2018-09-24T10:53:53.905Z,26272
2018-09-24T10:55:04.121Z,118304
2018-09-24T10:56:14.188Z,118784
2018-09-24T10:57:23.912Z,42336
2018-09-24T10:58:33.614Z,119200
2018-09-24T10:59:43.888Z,116480
2018-09-24T11:00:54.005Z,117568
2018-09-24T11:02:03.774Z,117152
2018-09-24T11:03:13.750Z,114144
2018-09-24T11:04:23.460Z,122016
2018-09-24T11:05:33.433Z,113856
2018-09-24T11:06:43.391Z,124064
2018-09-24T11:07:53.332Z,124864
2018-09-24T11:09:03.296Z,121408
2018-09-24T11:10:13.384Z,24672
2018-09-24T11:11:23.213Z,121888
2018-09-24T11:12:33.170Z,120576
2018-09-24T11:13:43.156Z,121216
2018-09-24T11:14:52.861Z,41824
2018-09-24T11:16:03.312Z,125504
2018-09-24T11:17:14.964Z,118368
2018-09-24T11:18:25.941Z,122496
2018-09-24T11:19:35.907Z,133216
2018-09-24T11:20:45.988Z,27200
2018-09-24T11:21:55.682Z,26304
2018-09-24T11:23:05.424Z,31360
2018-09-24T11:24:15.245Z,28800
2018-09-24T11:25:25.215Z,24896
2018-09-24T11:26:35.244Z,31392
2018-09-24T11:27:44.686Z,28992
2018-09-24T11:28:54.689Z,136256
2018-09-24T11:30:04.657Z,122080
2018-09-24T11:31:14.644Z,43424
2018-09-24T11:32:24.607Z,127520
2018-09-24T11:33:34.617Z,131584
2018-09-24T11:34:44.607Z,135264
2018-09-24T11:35:54.308Z,26336
2018-09-24T11:37:04.257Z,25760
2018-09-24T11:38:13.716Z,36064
2018-09-24T11:39:23.670Z,38496
2018-09-24T11:40:33.431Z,142016
2018-09-24T11:41:43.412Z,35488
2018-09-24T11:42:53.374Z,33632
2018-09-24T11:44:03.333Z,24928
2018-09-24T11:45:13.041Z,19552
2018-09-24T11:46:23.081Z,16516
2018-09-24T11:47:33.090Z,14516
2018-09-24T11:48:43.058Z,12356
2018-09-24T11:49:52.758Z,10628
2018-09-24T11:51:02.700Z,9340
2018-09-24T11:52:12.676Z,7676
2018-09-24T11:53:22.863Z,6860
2018-09-24T11:54:32.833Z,5776
2018-09-24T11:55:42.835Z,4852
2018-09-24T11:56:52.782Z,4832
2018-09-24T11:58:02.728Z,6648
2018-09-24T11:59:12.706Z,8620
2018-09-24T12:00:22.681Z,10556
2018-09-24T12:01:32.125Z,13248
2018-09-24T12:02:41.815Z,15812
2018-09-24T12:03:51.518Z,18592
2018-09-24T12:05:01.484Z,19296
2018-09-24T12:06:11.450Z,18304
2018-09-24T12:07:21.183Z,16456
2018-09-24T12:08:30.641Z,14940
2018-09-24T12:09:40.602Z,12676
2018-09-24T12:10:50.549Z,10704
2018-09-24T12:12:00.504Z,9972
2018-09-24T12:13:10.218Z,9948
2018-09-24T12:14:20.169Z,10692
2018-09-24T12:15:29.860Z,12132
2018-09-24T12:16:39.553Z,14020
2018-09-24T12:17:49.247Z,14916
2018-09-24T12:18:58.945Z,15812
2018-09-24T12:20:08.897Z,17696
2018-09-24T12:21:18.904Z,16892
2018-09-24T12:22:28.976Z,13220
2018-09-24T12:23:38.934Z,11816
2018-09-24T12:24:48.630Z,13360
2018-09-24T12:25:58.586Z,16120
2018-09-24T12:27:08.563Z,17184
2018-09-24T12:28:18.277Z,12540
2018-09-24T12:29:27.972Z,9056
2018-09-24T12:30:37.955Z,6940
2018-09-24T12:31:47.909Z,5744
2018-09-24T12:32:57.886Z,5268
2018-09-24T12:34:07.344Z,5156
2018-09-24T12:35:17.288Z,4752
2018-09-24T12:36:27.259Z,4416
2018-09-24T12:37:37.286Z,4544
2018-09-24T12:38:46.989Z,5020
2018-09-24T12:39:56.942Z,5264
2018-09-24T12:41:06.638Z,5256
2018-09-24T12:42:16.592Z,5500
2018-09-24T12:43:26.552Z,5424
2018-09-24T12:44:36.499Z,5688
2018-09-24T12:45:46.462Z,6660
2018-09-24T12:46:56.432Z,8032
2018-09-24T12:48:06.417Z,7316
2018-09-24T12:49:16.458Z,6700
2018-09-24T12:50:26.177Z,6352
2018-09-24T12:51:36.137Z,6256
2018-09-24T12:52:46.331Z,7056
2018-09-24T12:53:56.501Z,9680
2018-09-24T12:55:06.212Z,12972
2018-09-24T12:56:16.164Z,16168
2018-09-24T12:57:26.125Z,20896
2018-09-24T12:58:35.826Z,25440
2018-09-24T12:59:45.775Z,31392
2018-09-24T13:00:55.743Z,121248
2018-09-24T13:02:05.688Z,44256
2018-09-24T13:03:15.400Z,41280
2018-09-24T13:04:25.111Z,39872
2018-09-24T13:05:35.094Z,64512
2018-09-24T13:06:45.053Z,39456
2018-09-24T13:07:55.005Z,48704
2018-09-24T13:09:04.955Z,118208
2018-09-24T13:10:14.922Z,118048
2018-09-24T13:11:24.912Z,117888
2018-09-24T13:12:34.601Z,130720
2018-09-24T13:13:44.056Z,119552
2018-09-24T13:14:53.991Z,123744
2018-09-24T13:16:03.948Z,126496
2018-09-24T13:17:13.648Z,128960
2018-09-24T13:18:23.086Z,120544
2018-09-24T13:19:33.046Z,122048
2018-09-24T13:20:43.118Z,128992
2018-09-24T13:21:53.091Z,116864
2018-09-24T13:23:02.540Z,118304
2018-09-24T13:24:12.501Z,119328
2018-09-24T13:25:22.471Z,118592
2018-09-24T13:26:32.517Z,86016
2018-09-24T13:27:42.507Z,128320
2018-09-24T13:28:52.507Z,71904
2018-09-24T13:30:02.197Z,36096
2018-09-24T13:31:11.907Z,120960
2018-09-24T13:32:21.624Z,61920
2018-09-24T13:33:31.581Z,125696
2018-09-24T13:34:41.566Z,36896
2018-09-24T13:35:51.284Z,135680
2018-09-24T13:37:00.979Z,96000
2018-09-24T13:38:10.676Z,103456
2018-09-24T13:39:20.432Z,21568
2018-09-24T13:40:30.407Z,12408
2018-09-24T13:41:40.365Z,9340
2018-09-24T13:42:50.360Z,8284
2018-09-24T13:44:00.330Z,7796
2018-09-24T13:45:10.299Z,7224
2018-09-24T13:46:20.026Z,6160
2018-09-24T13:47:29.998Z,5700
2018-09-24T13:48:39.706Z,5904
2018-09-24T13:49:49.660Z,6716
2018-09-24T13:50:59.092Z,7228
2018-09-24T13:52:09.054Z,7512
2018-09-24T13:53:19.105Z,8480
2018-09-24T13:54:29.264Z,9844
2018-09-24T13:55:38.956Z,9884
2018-09-24T13:56:48.777Z,10036
2018-09-24T13:57:58.734Z,9756
2018-09-24T13:59:08.424Z,8856
2018-09-24T14:00:18.395Z,9116
2018-09-24T14:01:27.849Z,8868
2018-09-24T14:02:37.564Z,7712
2018-09-24T14:03:47.530Z,7392
2018-09-24T14:04:57.487Z,7396
2018-09-24T14:06:07.423Z,7300
2018-09-24T14:07:17.370Z,7576
2018-09-24T14:08:27.331Z,7596
2018-09-24T14:09:37.289Z,8240
2018-09-24T14:10:47.280Z,21312
2018-09-24T14:11:56.987Z,13252
2018-09-24T14:13:06.679Z,14192
2018-09-24T14:14:16.404Z,111456
2018-09-24T14:15:26.102Z,106656
2018-09-24T14:16:36.065Z,115104
2018-09-24T14:17:45.763Z,108768
2018-09-24T14:18:55.734Z,102848
2018-09-24T14:20:05.702Z,111104
2018-09-24T14:21:15.704Z,106272
2018-09-24T14:22:25.677Z,107776
2018-09-24T14:23:35.634Z,112416
2018-09-24T14:24:45.330Z,106816
2018-09-24T14:25:55.295Z,28064
2018-09-24T14:27:04.769Z,95584
2018-09-24T14:28:14.737Z,22784
2018-09-24T14:29:24.700Z,9772
2018-09-24T14:30:34.667Z,7700
2018-09-24T14:31:44.642Z,6396
2018-09-24T14:32:54.089Z,5416
2018-09-24T14:34:03.647Z,4700
2018-09-24T14:35:13.698Z,4464
2018-09-24T14:36:23.655Z,4616
2018-09-24T14:37:33.611Z,4852
2018-09-24T14:38:43.312Z,4888
2018-09-24T14:39:53.263Z,5388
2018-09-24T14:41:02.454Z,6752
2018-09-24T14:42:12.460Z,8656
2018-09-24T14:43:22.437Z,9560
2018-09-24T14:44:32.419Z,9788
2018-09-24T14:45:42.389Z,9608
2018-09-24T14:46:52.090Z,10004
2018-09-24T14:48:02.043Z,38528
2018-09-24T14:49:11.732Z,60352
2018-09-24T14:50:21.186Z,87552
2018-09-24T14:51:31.129Z,98976
2018-09-24T14:52:41.084Z,87296
2018-09-24T14:53:50.784Z,94432
2018-09-24T14:55:00.727Z,80256
2018-09-24T14:56:10.432Z,88800
2018-09-24T14:57:20.398Z,84416
2018-09-24T14:58:30.098Z,89152
2018-09-24T14:59:39.792Z,90624
2018-09-24T15:00:49.488Z,94112
2018-09-24T15:01:59.175Z,87520
2018-09-24T15:03:09.154Z,83648
2018-09-24T15:04:19.192Z,84384
2018-09-24T15:05:28.623Z,91520
2018-09-24T15:06:38.062Z,93952
2018-09-24T15:07:48.011Z,92192
2018-09-24T15:08:57.700Z,75040
2018-09-24T15:10:07.670Z,53824
2018-09-24T15:11:17.628Z,20096
2018-09-24T15:12:27.458Z,15128
2018-09-24T15:13:37.429Z,7116
2018-09-24T15:14:46.895Z,5452
2018-09-24T15:15:56.856Z,6556
2018-09-24T15:17:06.809Z,9552
2018-09-24T15:18:16.507Z,7588
2018-09-24T15:19:26.471Z,8112
2018-09-24T15:20:36.441Z,9988
2018-09-24T15:21:46.388Z,19584
2018-09-24T15:22:56.351Z,12452
2018-09-24T15:24:06.308Z,12368
2018-09-24T15:25:15.995Z,44800
2018-09-24T15:26:25.703Z,22752
2018-09-24T15:27:35.393Z,42528
2018-09-24T15:28:45.102Z,45440
2018-09-24T15:29:55.057Z,8776
2018-09-24T15:31:04.751Z,6728
2018-09-24T15:32:14.685Z,7196
2018-09-24T15:33:24.127Z,7544
2018-09-24T15:34:34.091Z,8956
2018-09-24T15:35:44.048Z,9920
2018-09-24T15:36:53.747Z,11256
2018-09-24T15:38:03.450Z,12788
2018-09-24T15:39:13.152Z,14636
2018-09-24T15:40:22.880Z,38624
2018-09-24T15:41:32.583Z,40672
2018-09-24T15:42:42.280Z,37568